createdAt,value
2017-09-08T00:01:56.400Z,9.07
2017-09-08T00:04:23.713Z,8.23
2017-09-08T00:06:51.016Z,9.23
2017-09-08T00:09:18.333Z,9.23
2017-09-08T00:11:45.636Z,9.57
2017-09-08T00:14:13.868Z,9.00
2017-09-08T00:16:41.207Z,9.90
2017-09-08T00:19:08.558Z,9.70
2017-09-08T00:21:35.884Z,10.17
2017-09-08T00:24:03.191Z,10.27
2017-09-08T00:26:30.489Z,9.97
2017-09-08T00:28:57.823Z,9.70
2017-09-08T00:31:25.145Z,10.33
2017-09-08T00:33:52.456Z,9.73
2017-09-08T00:36:19.768Z,10.30
2017-09-08T00:38:47.092Z,10.00
2017-09-08T00:41:14.412Z,10.30
2017-09-08T00:43:41.780Z,10.37
2017-09-08T00:46:09.089Z,11.63
2017-09-08T00:48:37.352Z,10.23
2017-09-08T00:51:04.672Z,11.20
2017-09-08T00:53:31.973Z,10.53
2017-09-08T00:55:59.293Z,10.97
2017-09-08T00:58:26.631Z,10.37
2017-09-08T01:00:53.972Z,10.63
2017-09-08T01:03:21.295Z,11.43
2017-09-08T01:05:48.616Z,10.30
2017-09-08T01:08:15.928Z,10.43
2017-09-08T01:10:43.257Z,10.70
2017-09-08T01:13:10.564Z,11.60
2017-09-08T01:15:37.918Z,10.57
2017-09-08T01:18:05.248Z,10.50
2017-09-08T01:20:33.524Z,10.10
2017-09-08T01:23:01.144Z,10.80
2017-09-08T01:25:28.473Z,10.60
2017-09-08T01:27:55.776Z,10.97
2017-09-08T01:30:23.096Z,10.50
2017-09-08T01:32:50.420Z,11.00
2017-09-08T01:35:17.776Z,10.53
2017-09-08T01:37:45.098Z,11.63
2017-09-08T01:40:12.417Z,12.43
2017-09-08T01:42:39.715Z,11.63
2017-09-08T01:45:07.037Z,11.27
2017-09-08T01:47:34.360Z,10.50
2017-09-08T01:50:02.060Z,11.60
2017-09-08T01:52:29.369Z,11.20
2017-09-08T01:54:56.693Z,11.60
2017-09-08T01:57:24.151Z,12.13
2017-09-08T01:59:51.471Z,13.43
2017-09-08T02:02:18.796Z,12.53
2017-09-08T02:04:46.091Z,12.60
2017-09-08T02:07:13.413Z,12.10
2017-09-08T02:09:40.744Z,12.37
2017-09-08T02:12:08.100Z,12.80
2017-09-08T02:14:35.416Z,12.73
2017-09-08T02:17:02.741Z,12.00
2017-09-08T02:19:30.040Z,12.73
2017-09-08T02:22:03.127Z,12.50
2017-09-08T02:24:30.423Z,12.70
2017-09-08T02:26:57.777Z,13.83
2017-09-08T02:29:25.112Z,12.40
2017-09-08T02:31:52.459Z,13.20
2017-09-08T02:34:19.773Z,12.13
2017-09-08T02:36:47.088Z,12.23
2017-09-08T02:39:14.385Z,12.50
2017-09-08T02:41:41.717Z,11.70
2017-09-08T02:44:09.050Z,12.30
2017-09-08T02:46:36.404Z,12.97
2017-09-08T02:49:03.717Z,13.60
2017-09-08T02:51:31.490Z,12.30
2017-09-08T02:53:58.828Z,12.63
2017-09-08T02:56:26.180Z,12.47
2017-09-08T02:58:53.512Z,12.07
2017-09-08T03:01:20.876Z,12.10
2017-09-08T03:03:48.185Z,13.33
2017-09-08T03:06:15.481Z,13.33
2017-09-08T03:08:42.801Z,11.50
2017-09-08T03:11:10.104Z,11.67
2017-09-08T03:13:37.469Z,11.73
2017-09-08T03:16:04.785Z,11.80
2017-09-08T03:18:32.144Z,11.57
2017-09-08T03:20:59.460Z,11.70
2017-09-08T03:23:26.780Z,11.47
2017-09-08T03:25:54.088Z,11.50
2017-09-08T03:28:21.416Z,10.63
2017-09-08T03:30:48.748Z,11.60
2017-09-08T03:33:16.092Z,11.53
2017-09-08T03:35:43.410Z,10.73
2017-09-08T03:38:10.716Z,10.97
2017-09-08T03:40:38.020Z,11.13
2017-09-08T03:43:05.372Z,11.43
2017-09-08T03:45:32.672Z,12.30
2017-09-08T03:47:59.984Z,10.40
2017-09-08T03:50:27.305Z,12.03
2017-09-08T03:52:54.604Z,10.60
2017-09-08T03:55:21.957Z,10.73
2017-09-08T03:57:49.272Z,9.90
2017-09-08T04:00:16.589Z,11.17
2017-09-08T04:02:43.893Z,10.80
2017-09-08T04:05:11.302Z,10.57
2017-09-08T04:07:38.605Z,10.57
2017-09-08T04:10:06.205Z,11.07
2017-09-08T04:12:33.543Z,10.50
2017-09-08T04:15:00.894Z,10.33
2017-09-08T04:17:28.212Z,10.17
2017-09-08T04:19:55.528Z,10.60
2017-09-08T04:22:22.824Z,10.70
2017-09-08T04:24:50.147Z,9.90
2017-09-08T04:27:17.445Z,10.40
2017-09-08T04:29:44.759Z,9.03
2017-09-08T04:32:12.064Z,10.23
2017-09-08T04:34:39.400Z,9.37
2017-09-08T04:37:06.737Z,10.20
2017-09-08T04:39:34.069Z,10.10
2017-09-08T04:42:01.619Z,9.23
2017-09-08T04:44:28.927Z,9.33
2017-09-08T04:46:56.233Z,9.00
2017-09-08T04:49:23.557Z,8.50
2017-09-08T04:51:50.889Z,8.80
2017-09-08T04:54:18.192Z,9.30
2017-09-08T04:56:45.488Z,8.30
2017-09-08T04:59:12.816Z,8.87
2017-09-08T05:01:40.112Z,9.40
2017-09-08T05:04:08.416Z,10.10
2017-09-08T05:06:35.730Z,8.87
2017-09-08T05:09:03.029Z,9.30
2017-09-08T05:11:31.266Z,8.70
2017-09-08T05:13:58.583Z,9.13
2017-09-08T05:16:26.873Z,9.23
2017-09-08T05:18:54.187Z,8.53
2017-09-08T05:21:21.505Z,8.50
2017-09-08T05:23:48.800Z,9.07
2017-09-08T05:26:16.136Z,9.13
2017-09-08T05:28:43.487Z,8.30
2017-09-08T05:31:10.817Z,9.20
2017-09-08T05:33:38.112Z,9.33
2017-09-08T05:36:05.424Z,9.63
2017-09-08T05:38:32.719Z,9.10
2017-09-08T05:41:00.032Z,8.00
2017-09-08T05:43:27.327Z,8.73
2017-09-08T05:45:54.677Z,8.40
2017-09-08T05:48:21.982Z,8.60
2017-09-08T05:50:49.276Z,8.27
2017-09-08T05:53:16.600Z,9.20
2017-09-08T05:55:43.904Z,8.43
2017-09-08T05:58:11.208Z,9.00
2017-09-08T06:00:38.504Z,8.37
2017-09-08T06:03:05.840Z,7.70
2017-09-08T06:05:33.163Z,8.83
2017-09-08T06:08:00.480Z,8.70
2017-09-08T06:10:27.771Z,8.17
2017-09-08T06:12:55.104Z,8.57
2017-09-08T06:15:23.344Z,8.50
2017-09-08T06:17:50.659Z,8.27
2017-09-08T06:20:17.952Z,8.20
2017-09-08T06:22:45.283Z,7.87
2017-09-08T06:25:12.612Z,8.17
2017-09-08T06:27:40.889Z,7.70
2017-09-08T06:30:08.216Z,8.20
2017-09-08T06:32:35.525Z,7.67
2017-09-08T06:35:02.836Z,8.97
2017-09-08T06:37:30.140Z,8.60
2017-09-08T06:39:57.456Z,8.57
2017-09-08T06:42:24.756Z,8.70
2017-09-08T06:44:52.071Z,8.00
2017-09-08T06:47:19.395Z,8.67
2017-09-08T06:49:46.707Z,7.87
2017-09-08T06:52:14.005Z,8.13
2017-09-08T06:54:41.337Z,8.80
2017-09-08T06:57:08.661Z,8.50
2017-09-08T06:59:35.975Z,7.70
2017-09-08T07:02:03.281Z,7.20
2017-09-08T07:04:30.605Z,7.63
2017-09-08T07:06:57.920Z,7.30
2017-09-08T07:09:25.227Z,7.87
2017-09-08T07:11:52.521Z,7.80
2017-09-08T07:14:19.868Z,7.33
2017-09-08T07:16:47.180Z,7.23
2017-09-08T07:19:14.496Z,7.03
2017-09-08T07:21:41.788Z,6.80
2017-09-08T07:24:09.116Z,8.17
2017-09-08T07:26:36.461Z,6.83
2017-09-08T07:29:03.789Z,6.40
2017-09-08T07:31:31.099Z,6.13
2017-09-08T07:33:58.399Z,6.90
2017-09-08T07:36:25.728Z,7.10
2017-09-08T07:38:53.052Z,6.73
2017-09-08T07:41:20.359Z,6.50
2017-09-08T07:43:47.651Z,7.10
2017-09-08T07:46:15.013Z,6.53
2017-09-08T07:48:42.315Z,7.43
2017-09-08T07:51:09.627Z,6.77
2017-09-08T07:53:36.954Z,6.60
2017-09-08T07:56:04.264Z,7.00
2017-09-08T07:58:31.865Z,6.77
2017-09-08T08:00:59.176Z,6.33
2017-09-08T08:03:26.469Z,6.77
2017-09-08T08:05:53.779Z,7.60
2017-09-08T08:08:21.094Z,6.70
2017-09-08T08:10:48.413Z,6.80
2017-09-08T08:13:15.725Z,7.17
2017-09-08T08:15:43.095Z,7.10
2017-09-08T08:18:10.418Z,6.50
2017-09-08T08:20:37.772Z,6.33
2017-09-08T08:23:05.912Z,7.27
2017-09-08T08:25:33.252Z,6.30
2017-09-08T08:28:00.545Z,6.87
2017-09-08T08:30:27.862Z,6.80
2017-09-08T08:32:55.200Z,6.03
2017-09-08T08:35:22.523Z,6.60
2017-09-08T08:37:49.844Z,7.57
2017-09-08T08:40:17.132Z,7.37
2017-09-08T08:42:44.460Z,7.13
2017-09-08T08:45:11.772Z,6.50
2017-09-08T08:47:39.071Z,7.10
2017-09-08T08:50:06.808Z,6.47
2017-09-08T08:52:34.124Z,6.83
2017-09-08T08:55:01.764Z,6.40
2017-09-08T08:57:29.107Z,7.23
2017-09-08T08:59:56.479Z,7.17
2017-09-08T09:02:23.804Z,7.50
2017-09-08T09:04:51.124Z,7.10
2017-09-08T09:07:18.446Z,7.03
2017-09-08T09:09:45.749Z,6.57
2017-09-08T09:12:13.074Z,6.90
2017-09-08T09:14:40.379Z,6.67
2017-09-08T09:17:07.696Z,6.63
2017-09-08T09:19:34.980Z,7.20
2017-09-08T09:22:02.300Z,6.27
2017-09-08T09:24:29.608Z,6.83
2017-09-08T09:26:56.996Z,6.97
2017-09-08T09:29:24.357Z,6.87
2017-09-08T09:31:51.672Z,7.13
2017-09-08T09:34:18.980Z,7.40
2017-09-08T09:36:46.466Z,8.57
2017-09-08T09:39:13.816Z,7.37
2017-09-08T09:41:41.144Z,7.30
2017-09-08T09:44:08.491Z,7.17
2017-09-08T09:46:35.814Z,6.83
2017-09-08T09:49:03.132Z,7.03
2017-09-08T09:51:30.425Z,8.00
2017-09-08T09:53:57.767Z,6.63
2017-09-08T09:56:25.092Z,7.07
2017-09-08T09:58:52.439Z,6.60
2017-09-08T10:01:19.764Z,6.97
2017-09-08T10:03:47.085Z,6.70
2017-09-08T10:06:14.386Z,6.87
2017-09-08T10:08:41.724Z,6.77
2017-09-08T10:11:09.020Z,7.00
2017-09-08T10:13:36.372Z,6.87
2017-09-08T10:16:03.665Z,7.10
2017-09-08T10:18:30.968Z,6.90
2017-09-08T10:20:58.336Z,7.20
2017-09-08T10:23:25.628Z,6.20
2017-09-08T10:25:52.953Z,7.53
2017-09-08T10:28:20.244Z,6.97
2017-09-08T10:30:47.576Z,7.20
2017-09-08T10:33:14.900Z,6.77
2017-09-08T10:35:42.256Z,6.60
2017-09-08T10:38:09.585Z,6.67
2017-09-08T10:40:36.942Z,6.73
2017-09-08T10:43:04.271Z,6.50
2017-09-08T10:45:31.915Z,6.90
2017-09-08T10:47:59.260Z,7.30
2017-09-08T10:50:26.633Z,7.33
2017-09-08T10:52:53.928Z,6.70
2017-09-08T10:55:21.235Z,7.30
2017-09-08T10:57:48.540Z,6.40
2017-09-08T11:00:15.871Z,6.87
2017-09-08T11:02:43.185Z,6.57
2017-09-08T11:05:10.496Z,6.50
2017-09-08T11:07:37.795Z,5.80
2017-09-08T11:10:05.137Z,7.03
2017-09-08T11:12:32.452Z,6.33
2017-09-08T11:14:59.768Z,5.73
2017-09-08T11:17:27.093Z,5.87
2017-09-08T11:19:54.408Z,6.33
2017-09-08T11:22:21.728Z,5.77
2017-09-08T11:24:50.033Z,5.53
2017-09-08T11:27:17.329Z,5.80
2017-09-08T11:29:44.646Z,6.27
2017-09-08T11:32:11.940Z,5.90
2017-09-08T11:34:45.007Z,6.10
2017-09-08T11:37:12.317Z,5.60
2017-09-08T11:39:39.625Z,5.20
2017-09-08T11:42:06.932Z,4.93
2017-09-08T11:44:34.236Z,6.53
2017-09-08T11:47:01.549Z,6.00
2017-09-08T11:49:28.856Z,5.87
2017-09-08T11:51:56.192Z,4.90
2017-09-08T11:54:23.501Z,5.20
2017-09-08T11:56:50.816Z,5.37
2017-09-08T11:59:18.116Z,5.00
2017-09-08T12:01:45.433Z,5.80
2017-09-08T12:04:12.760Z,5.40
2017-09-08T12:06:40.069Z,5.47
2017-09-08T12:09:07.373Z,5.40
2017-09-08T12:11:34.728Z,5.40
2017-09-08T12:14:02.244Z,5.30
2017-09-08T12:16:29.608Z,5.60
2017-09-08T12:18:56.909Z,5.60
2017-09-08T12:21:24.220Z,5.67
2017-09-08T12:23:51.512Z,6.20
2017-09-08T12:26:18.856Z,5.23
2017-09-08T12:28:46.156Z,6.17
2017-09-08T12:31:13.464Z,5.50
2017-09-08T12:33:40.756Z,5.33
2017-09-08T12:36:08.543Z,5.77
2017-09-08T12:38:35.858Z,5.87
2017-09-08T12:41:03.203Z,5.27
2017-09-08T12:43:30.541Z,17.47
2017-09-08T12:45:58.841Z,6.90
2017-09-08T12:48:26.132Z,5.40
2017-09-08T12:50:53.448Z,5.60
2017-09-08T12:53:20.750Z,5.10
2017-09-08T12:55:48.052Z,5.97
2017-09-08T12:58:15.360Z,5.37
2017-09-08T13:00:42.873Z,6.30
2017-09-08T13:03:10.189Z,5.30
2017-09-08T13:05:37.540Z,5.00
2017-09-08T13:08:04.869Z,5.63
2017-09-08T13:10:32.308Z,4.80
2017-09-08T13:12:59.618Z,5.53
2017-09-08T13:15:26.908Z,6.00
2017-09-08T13:17:54.220Z,5.00
2017-09-08T13:20:21.525Z,5.97
2017-09-08T13:22:48.884Z,6.00
2017-09-08T13:25:16.199Z,5.63
2017-09-08T13:27:43.521Z,5.70
2017-09-08T13:30:10.842Z,5.77
2017-09-08T13:32:38.195Z,5.83
2017-09-08T13:35:05.509Z,6.00
2017-09-08T13:37:32.825Z,5.87
2017-09-08T13:40:00.120Z,6.67
2017-09-08T13:42:27.462Z,7.00
2017-09-08T13:44:55.701Z,6.00
2017-09-08T13:47:23.025Z,8.27
2017-09-08T13:49:50.356Z,5.83
2017-09-08T13:52:17.847Z,5.93
2017-09-08T13:54:45.173Z,6.07
2017-09-08T13:57:12.877Z,6.60
2017-09-08T13:59:40.161Z,6.33
2017-09-08T14:02:07.526Z,6.87
2017-09-08T14:04:34.836Z,5.60
2017-09-08T14:07:02.299Z,5.77
2017-09-08T14:09:29.621Z,5.60
2017-09-08T14:11:56.936Z,5.80
2017-09-08T14:14:24.248Z,5.40
2017-09-08T14:16:51.560Z,5.33
2017-09-08T14:19:18.892Z,5.20
2017-09-08T14:21:46.249Z,5.77
2017-09-08T14:24:13.572Z,5.63
2017-09-08T14:26:40.936Z,5.37
2017-09-08T14:29:08.252Z,6.03
2017-09-08T14:31:35.609Z,5.90
2017-09-08T14:34:02.928Z,5.80
2017-09-08T14:36:31.105Z,6.00
2017-09-08T14:38:58.436Z,6.30
2017-09-08T14:41:25.740Z,5.47
2017-09-08T14:43:53.060Z,5.60
2017-09-08T14:46:20.565Z,5.67
2017-09-08T14:48:47.877Z,6.00
2017-09-08T14:51:15.176Z,6.60
2017-09-08T14:53:42.505Z,6.53
2017-09-08T14:56:09.834Z,5.77
2017-09-08T14:58:37.192Z,6.60
2017-09-08T15:01:04.513Z,6.20
2017-09-08T15:03:31.881Z,6.90
2017-09-08T15:05:59.515Z,7.37
2017-09-08T15:08:26.860Z,7.20
2017-09-08T15:10:54.189Z,6.37
2017-09-08T15:13:21.558Z,6.30
2017-09-08T15:15:48.874Z,6.90
2017-09-08T15:18:16.233Z,6.13
2017-09-08T15:20:43.600Z,6.00
2017-09-08T15:23:10.934Z,6.50
2017-09-08T15:25:38.233Z,6.40
2017-09-08T15:28:05.614Z,7.10
2017-09-08T15:30:32.909Z,6.67
2017-09-08T15:33:00.232Z,7.17
2017-09-08T15:35:29.257Z,6.77
2017-09-08T15:37:56.896Z,6.93
2017-09-08T15:40:24.226Z,7.27
2017-09-08T15:42:51.606Z,7.20
2017-09-08T15:45:18.915Z,6.97
2017-09-08T15:47:46.234Z,7.50
2017-09-08T15:50:13.539Z,7.00
2017-09-08T15:52:40.860Z,6.70
2017-09-08T15:55:08.224Z,7.07
2017-09-08T15:57:35.743Z,7.00
2017-09-08T16:00:03.073Z,7.00
2017-09-08T16:02:30.508Z,7.10
2017-09-08T16:04:57.966Z,6.70
2017-09-08T16:07:25.353Z,6.87
2017-09-08T16:09:52.720Z,6.83
2017-09-08T16:12:20.046Z,9.20
2017-09-08T16:14:48.406Z,8.13
2017-09-08T16:17:15.718Z,7.73
2017-09-08T16:19:43.364Z,7.80
2017-09-08T16:22:11.026Z,9.30
2017-09-08T16:24:38.349Z,8.17
2017-09-08T16:27:05.690Z,9.07
2017-09-08T16:29:33.057Z,9.70
2017-09-08T16:32:00.358Z,7.03
2017-09-08T16:34:27.682Z,8.53
2017-09-08T16:36:55.042Z,7.30
2017-09-08T16:39:22.407Z,6.80
2017-09-08T16:41:49.717Z,7.50
2017-09-08T16:44:17.090Z,8.30
2017-09-08T16:46:44.418Z,7.57
2017-09-08T16:49:11.746Z,6.67
2017-09-08T16:51:39.073Z,7.70
2017-09-08T16:54:06.444Z,6.73
2017-09-08T16:56:33.758Z,7.67
2017-09-08T16:59:01.086Z,6.80
2017-09-08T17:01:28.400Z,7.70
2017-09-08T17:03:55.718Z,7.70
2017-09-08T17:06:23.024Z,7.50
2017-09-08T17:08:50.342Z,6.40
2017-09-08T17:11:17.642Z,6.80
2017-09-08T17:13:44.965Z,6.93
2017-09-08T17:16:12.314Z,7.40
2017-09-08T17:18:39.665Z,6.47
2017-09-08T17:21:06.984Z,6.57
2017-09-08T17:23:34.334Z,6.13
2017-09-08T17:26:01.698Z,6.80
2017-09-08T17:28:29.076Z,6.97
2017-09-08T17:30:56.423Z,6.50
2017-09-08T17:33:23.738Z,6.60
2017-09-08T17:35:52.050Z,6.80
2017-09-08T17:38:19.372Z,6.43
2017-09-08T17:40:46.728Z,6.40
2017-09-08T17:43:14.050Z,6.27
2017-09-08T17:45:41.404Z,6.97
2017-09-08T17:48:08.731Z,7.57
2017-09-08T17:50:36.086Z,7.10
2017-09-08T17:53:03.417Z,7.87
2017-09-08T17:55:31.026Z,7.20
2017-09-08T17:57:58.405Z,7.40
2017-09-08T18:00:25.721Z,7.37
2017-09-08T18:02:53.044Z,6.60
2017-09-08T18:05:20.365Z,6.53
2017-09-08T18:07:47.689Z,7.30
2017-09-08T18:10:15.048Z,6.77
2017-09-08T18:12:42.363Z,5.90
2017-09-08T18:15:09.842Z,6.93
2017-09-08T18:17:37.263Z,7.03
2017-09-08T18:20:04.611Z,5.80
2017-09-08T18:22:31.951Z,6.53
2017-09-08T18:24:59.291Z,6.40
2017-09-08T18:27:26.710Z,7.53
2017-09-08T18:29:54.114Z,6.40
2017-09-08T18:32:21.490Z,6.40
2017-09-08T18:34:48.835Z,6.00
2017-09-08T18:37:16.148Z,6.80
2017-09-08T18:39:43.502Z,6.37
2017-09-08T18:42:10.973Z,6.90
2017-09-08T18:44:38.302Z,6.43
2017-09-08T18:47:05.654Z,6.87
2017-09-08T18:49:32.984Z,6.60
2017-09-08T18:52:00.317Z,6.10
2017-09-08T18:54:27.635Z,6.97
2017-09-08T18:56:55.034Z,6.67
2017-09-08T18:59:22.354Z,6.57
2017-09-08T19:01:49.706Z,6.70
2017-09-08T19:04:17.096Z,6.70
2017-09-08T19:06:44.410Z,7.60
2017-09-08T19:09:11.714Z,7.73
2017-09-08T19:11:39.094Z,6.10
2017-09-08T19:14:06.406Z,6.63
2017-09-08T19:16:33.759Z,6.40
2017-09-08T19:19:01.093Z,6.70
2017-09-08T19:21:30.392Z,6.80
2017-09-08T19:23:57.730Z,7.97
2017-09-08T19:26:25.097Z,6.80
2017-09-08T19:28:52.417Z,7.47
2017-09-08T19:31:19.763Z,7.80
2017-09-08T19:33:47.813Z,8.10
2017-09-08T19:36:15.166Z,8.17
2017-09-08T19:38:43.653Z,8.20
2017-09-08T19:41:11.317Z,7.70
2017-09-08T19:43:38.621Z,6.90
2017-09-08T19:46:05.957Z,7.57
2017-09-08T19:48:33.329Z,7.20
2017-09-08T19:51:00.694Z,7.50
2017-09-08T19:53:28.528Z,7.50
2017-09-08T19:55:55.866Z,7.20
2017-09-08T19:58:23.191Z,7.57
2017-09-08T20:00:54.834Z,7.17
2017-09-08T20:03:22.216Z,7.57
2017-09-08T20:05:49.851Z,7.83
2017-09-08T20:08:17.206Z,7.40
2017-09-08T20:10:44.558Z,6.90
2017-09-08T20:13:11.921Z,6.70
2017-09-08T20:15:39.298Z,6.80
2017-09-08T20:18:06.642Z,8.37
2017-09-08T20:20:34.108Z,7.07
2017-09-08T20:23:01.435Z,7.10
2017-09-08T20:25:28.788Z,7.40
2017-09-08T20:27:57.102Z,6.93
2017-09-08T20:30:25.435Z,7.33
2017-09-08T20:32:52.793Z,7.53
2017-09-08T20:35:20.098Z,6.77
2017-09-08T20:37:48.445Z,6.77
2017-09-08T20:40:15.830Z,6.93
2017-09-08T20:42:43.196Z,6.60
2017-09-08T20:45:10.532Z,7.10
2017-09-08T20:47:37.890Z,6.83
2017-09-08T20:50:05.203Z,6.10
2017-09-08T20:52:33.707Z,6.73
2017-09-08T20:55:01.058Z,7.63
2017-09-08T20:57:29.422Z,6.30
2017-09-08T20:59:56.748Z,6.67
2017-09-08T21:02:24.308Z,6.67
2017-09-08T21:04:52.518Z,7.33
2017-09-08T21:07:20.822Z,6.90
2017-09-08T21:09:48.122Z,6.90
2017-09-08T21:12:15.785Z,7.57
2017-09-08T21:14:43.169Z,6.27
2017-09-08T21:17:10.505Z,7.10
2017-09-08T21:19:37.792Z,6.60
2017-09-08T21:22:05.110Z,7.43
2017-09-08T21:24:32.417Z,7.07
2017-09-08T21:26:59.750Z,6.60
2017-09-08T21:29:27.063Z,6.50
2017-09-08T21:31:55.358Z,7.10
2017-09-08T21:34:22.774Z,6.90
2017-09-08T21:36:50.105Z,7.30
2017-09-08T21:39:17.453Z,6.67
2017-09-08T21:41:45.544Z,6.47
2017-09-08T21:44:12.865Z,5.90
2017-09-08T21:46:40.186Z,7.10
2017-09-08T21:49:07.648Z,6.80
2017-09-08T21:51:34.961Z,6.10
2017-09-08T21:54:02.282Z,6.53
2017-09-08T21:56:29.586Z,7.17
2017-09-08T21:58:56.924Z,6.50
2017-09-08T22:01:24.258Z,6.83
2017-09-08T22:03:51.590Z,6.87
2017-09-08T22:06:18.915Z,6.70
2017-09-08T22:08:46.237Z,7.40
2017-09-08T22:11:14.514Z,6.17
2017-09-08T22:13:41.838Z,6.63
2017-09-08T22:16:09.142Z,6.70
2017-09-08T22:18:36.465Z,7.60
2017-09-08T22:21:03.777Z,6.73
2017-09-08T22:23:31.136Z,7.30
2017-09-08T22:25:58.458Z,7.00
2017-09-08T22:28:25.789Z,6.70
2017-09-08T22:30:53.104Z,7.73
2017-09-08T22:33:20.427Z,7.50
2017-09-08T22:35:47.743Z,6.83
2017-09-08T22:38:15.092Z,6.90
2017-09-08T22:40:44.357Z,7.47
2017-09-08T22:43:12.113Z,7.03
2017-09-08T22:45:39.443Z,7.47
2017-09-08T22:48:06.765Z,7.53
2017-09-08T22:50:34.073Z,7.10
2017-09-08T22:53:01.393Z,7.20
2017-09-08T22:55:29.053Z,8.10
2017-09-08T22:57:56.401Z,7.23
2017-09-08T23:00:23.721Z,7.30
2017-09-08T23:02:51.086Z,7.40
2017-09-08T23:05:18.426Z,7.40
2017-09-08T23:07:45.750Z,6.77
2017-09-08T23:10:13.086Z,7.23
2017-09-08T23:12:40.414Z,7.47
2017-09-08T23:15:07.758Z,7.50
2017-09-08T23:17:35.128Z,6.60
2017-09-08T23:20:02.478Z,7.03
2017-09-08T23:22:29.789Z,7.47
2017-09-08T23:24:57.134Z,7.00
2017-09-08T23:27:24.463Z,7.40
2017-09-08T23:29:51.818Z,7.80
2017-09-08T23:32:19.154Z,7.70
2017-09-08T23:34:46.497Z,7.50
2017-09-08T23:37:13.825Z,7.77
2017-09-08T23:39:41.178Z,7.50
2017-09-08T23:42:08.512Z,7.60
2017-09-08T23:44:35.865Z,7.60
2017-09-08T23:47:03.182Z,7.07
2017-09-08T23:49:36.229Z,7.87
2017-09-08T23:52:03.535Z,7.00
2017-09-08T23:54:30.901Z,7.10
2017-09-08T23:56:58.281Z,8.33
2017-09-08T23:59:25.653Z,7.60
